Terminal Aerodrome Forecast
Issued by NWS

Home | Current Version | Previous Version | Graphics & Text | Print | Product List | Glossary On
Versions: 1 2 3 4 5 6 7 8 9 10 11 12 13 14 15 16 17 18 19 20 21 22 23 24
000
FTUS45 KGGW 110532
TAFGDV
TAF
KGDV 110532Z 1106/1206 30026G39KT P6SM FEW150
     FM111200 30019G31KT P6SM OVC020
     FM111800 31016G24KT P6SM SCT025
     FM112300 30009KT P6SM FEW040
     FM120300 27005KT P6SM FEW200=

USA.gov is the U.S. government's official web portal to all federal, state and local government web resources and services.